sensor_id;sensor_type;location;lat;lon;timestamp;P1;durP1;ratioP1;P2;durP2;ratioP2
14001;SDS011;7076;51.280;12.584;2023-12-20T00:00:09;2.73;;;1.63;;
14001;SDS011;7076;51.280;12.584;2023-12-20T00:05:12;1.90;;;1.70;;
14001;SDS011;7076;51.280;12.584;2023-12-20T00:10:15;2.20;;;1.63;;
14001;SDS011;7076;51.280;12.584;2023-12-20T00:15:19;1.53;;;1.43;;
14001;SDS011;7076;51.280;12.584;2023-12-20T00:20:21;2.43;;;1.47;;
14001;SDS011;7076;51.280;12.584;2023-12-20T00:25:24;1.40;;;1.13;;
14001;SDS011;7076;51.280;12.584;2023-12-20T00:30:28;1.40;;;1.30;;
14001;SDS011;7076;51.280;12.584;2023-12-20T00:35:31;1.30;;;0.90;;
14001;SDS011;7076;51.280;12.584;2023-12-20T00:40:33;0.90;;;0.90;;
14001;SDS011;7076;51.280;12.584;2023-12-20T00:45:38;1.10;;;1.00;;
14001;SDS011;7076;51.280;12.584;2023-12-20T00:50:40;1.17;;;0.90;;
14001;SDS011;7076;51.280;12.584;2023-12-20T00:55:43;1.07;;;0.90;;
14001;SDS011;7076;51.280;12.584;2023-12-20T01:00:47;0.80;;;0.80;;
14001;SDS011;7076;51.280;12.584;2023-12-20T01:05:50;0.90;;;0.77;;
14001;SDS011;7076;51.280;12.584;2023-12-20T01:10:53;0.73;;;0.60;;
14001;SDS011;7076;51.280;12.584;2023-12-20T01:15:57;0.70;;;0.70;;
14001;SDS011;7076;51.280;12.584;2023-12-20T01:21:01;0.73;;;0.63;;
14001;SDS011;7076;51.280;12.584;2023-12-20T01:26:04;0.60;;;0.60;;
14001;SDS011;7076;51.280;12.584;2023-12-20T01:31:08;0.90;;;0.80;;
14001;SDS011;7076;51.280;12.584;2023-12-20T01:36:11;0.60;;;0.60;;
14001;SDS011;7076;51.280;12.584;2023-12-20T01:41:13;0.60;;;0.60;;
14001;SDS011;7076;51.280;12.584;2023-12-20T01:46:18;0.80;;;0.80;;
14001;SDS011;7076;51.280;12.584;2023-12-20T01:51:21;0.73;;;0.67;;
14001;SDS011;7076;51.280;12.584;2023-12-20T01:56:24;0.50;;;0.50;;
14001;SDS011;7076;51.280;12.584;2023-12-20T02:01:28;0.60;;;0.60;;
14001;SDS011;7076;51.280;12.584;2023-12-20T02:06:31;1.53;;;0.70;;
14001;SDS011;7076;51.280;12.584;2023-12-20T02:11:36;0.60;;;0.60;;
14001;SDS011;7076;51.280;12.584;2023-12-20T02:16:39;0.90;;;0.90;;
14001;SDS011;7076;51.280;12.584;2023-12-20T02:21:44;1.67;;;0.63;;
14001;SDS011;7076;51.280;12.584;2023-12-20T02:26:46;0.60;;;0.60;;
14001;SDS011;7076;51.280;12.584;2023-12-20T02:31:49;0.50;;;0.50;;
14001;SDS011;7076;51.280;12.584;2023-12-20T02:36:53;0.87;;;0.77;;
14001;SDS011;7076;51.280;12.584;2023-12-20T02:41:56;4.27;;;0.70;;
14001;SDS011;7076;51.280;12.584;2023-12-20T02:46:58;0.70;;;0.70;;
14001;SDS011;7076;51.280;12.584;2023-12-20T02:52:02;0.67;;;0.67;;
14001;SDS011;7076;51.280;12.584;2023-12-20T02:57:08;0.50;;;0.50;;
14001;SDS011;7076;51.280;12.584;2023-12-20T03:02:10;0.60;;;0.60;;
14001;SDS011;7076;51.280;12.584;2023-12-20T03:07:15;0.60;;;0.60;;
14001;SDS011;7076;51.280;12.584;2023-12-20T03:12:17;0.60;;;0.60;;
14001;SDS011;7076;51.280;12.584;2023-12-20T03:17:20;0.60;;;0.60;;
14001;SDS011;7076;51.280;12.584;2023-12-20T03:22:24;0.73;;;0.67;;
14001;SDS011;7076;51.280;12.584;2023-12-20T03:27:27;0.50;;;0.50;;
14001;SDS011;7076;51.280;12.584;2023-12-20T03:32:29;0.60;;;0.60;;
14001;SDS011;7076;51.280;12.584;2023-12-20T03:37:33;0.60;;;0.60;;
14001;SDS011;7076;51.280;12.584;2023-12-20T03:42:36;0.43;;;0.43;;
14001;SDS011;7076;51.280;12.584;2023-12-20T03:47:38;0.53;;;0.53;;
14001;SDS011;7076;51.280;12.584;2023-12-20T03:52:43;0.60;;;0.60;;
14001;SDS011;7076;51.280;12.584;2023-12-20T03:57:45;0.70;;;0.70;;
14001;SDS011;7076;51.280;12.584;2023-12-20T04:02:48;0.70;;;0.70;;
14001;SDS011;7076;51.280;12.584;2023-12-20T04:07:52;1.23;;;0.73;;
14001;SDS011;7076;51.280;12.584;2023-12-20T04:12:55;0.80;;;0.63;;
14001;SDS011;7076;51.280;12.584;2023-12-20T04:17:57;0.70;;;0.70;;
14001;SDS011;7076;51.280;12.584;2023-12-20T04:23:02;0.70;;;0.70;;
14001;SDS011;7076;51.280;12.584;2023-12-20T04:28:05;1.03;;;0.80;;
14001;SDS011;7076;51.280;12.584;2023-12-20T04:33:07;1.63;;;0.80;;
14001;SDS011;7076;51.280;12.584;2023-12-20T04:38:12;1.03;;;0.80;;
14001;SDS011;7076;51.280;12.584;2023-12-20T04:43:14;1.00;;;0.90;;
14001;SDS011;7076;51.280;12.584;2023-12-20T04:48:17;0.60;;;0.60;;
14001;SDS011;7076;51.280;12.584;2023-12-20T04:53:21;0.80;;;0.80;;
14001;SDS011;7076;51.280;12.584;2023-12-20T04:58:24;0.77;;;0.77;;
14001;SDS011;7076;51.280;12.584;2023-12-20T05:03:27;1.37;;;1.10;;
14001;SDS011;7076;51.280;12.584;2023-12-20T05:08:31;1.10;;;1.00;;
14001;SDS011;7076;51.280;12.584;2023-12-20T05:13:34;0.93;;;0.90;;
14001;SDS011;7076;51.280;12.584;2023-12-20T05:18:48;1.30;;;1.20;;
14001;SDS011;7076;51.280;12.584;2023-12-20T05:23:52;0.93;;;0.90;;
14001;SDS011;7076;51.280;12.584;2023-12-20T05:28:55;1.20;;;1.10;;
14001;SDS011;7076;51.280;12.584;2023-12-20T05:33:57;1.17;;;1.07;;
14001;SDS011;7076;51.280;12.584;2023-12-20T05:39:01;1.30;;;1.20;;
14001;SDS011;7076;51.280;12.584;2023-12-20T05:44:04;1.10;;;1.00;;
14001;SDS011;7076;51.280;12.584;2023-12-20T05:49:07;1.30;;;1.20;;
14001;SDS011;7076;51.280;12.584;2023-12-20T05:54:11;1.33;;;1.23;;
14001;SDS011;7076;51.280;12.584;2023-12-20T05:59:14;1.20;;;1.10;;
14001;SDS011;7076;51.280;12.584;2023-12-20T06:04:17;1.20;;;1.10;;
14001;SDS011;7076;51.280;12.584;2023-12-20T06:09:24;1.23;;;1.10;;
14001;SDS011;7076;51.280;12.584;2023-12-20T06:14:26;1.70;;;1.60;;
14001;SDS011;7076;51.280;12.584;2023-12-20T06:19:29;1.40;;;1.30;;
14001;SDS011;7076;51.280;12.584;2023-12-20T06:24:33;1.77;;;1.57;;
14001;SDS011;7076;51.280;12.584;2023-12-20T06:29:36;1.63;;;1.30;;
14001;SDS011;7076;51.280;12.584;2023-12-20T06:34:38;1.57;;;1.33;;
14001;SDS011;7076;51.280;12.584;2023-12-20T06:39:43;1.67;;;1.23;;
14001;SDS011;7076;51.280;12.584;2023-12-20T06:44:45;1.67;;;1.40;;
14001;SDS011;7076;51.280;12.584;2023-12-20T06:49:48;2.50;;;1.50;;
14001;SDS011;7076;51.280;12.584;2023-12-20T06:54:52;1.47;;;1.37;;
14001;SDS011;7076;51.280;12.584;2023-12-20T06:59:55;2.77;;;1.70;;
14001;SDS011;7076;51.280;12.584;2023-12-20T07:04:57;1.33;;;1.13;;
14001;SDS011;7076;51.280;12.584;2023-12-20T07:10:01;2.10;;;1.70;;
14001;SDS011;7076;51.280;12.584;2023-12-20T07:15:04;1.60;;;1.40;;
14001;SDS011;7076;51.280;12.584;2023-12-20T07:20:08;1.40;;;1.30;;
14001;SDS011;7076;51.280;12.584;2023-12-20T07:25:13;1.83;;;1.23;;
14001;SDS011;7076;51.280;12.584;2023-12-20T07:30:16;1.23;;;1.13;;
14001;SDS011;7076;51.280;12.584;2023-12-20T07:35:19;1.40;;;1.30;;
14001;SDS011;7076;51.280;12.584;2023-12-20T07:40:23;1.90;;;1.10;;
14001;SDS011;7076;51.280;12.584;2023-12-20T07:45:26;1.20;;;0.97;;
14001;SDS011;7076;51.280;12.584;2023-12-20T07:50:28;0.80;;;0.80;;
14001;SDS011;7076;51.280;12.584;2023-12-20T07:55:32;0.70;;;0.70;;
14001;SDS011;7076;51.280;12.584;2023-12-20T08:00:35;0.97;;;0.73;;
14001;SDS011;7076;51.280;12.584;2023-12-20T08:05:38;0.87;;;0.87;;
14001;SDS011;7076;51.280;12.584;2023-12-20T08:10:42;1.07;;;0.97;;
14001;SDS011;7076;51.280;12.584;2023-12-20T08:15:45;2.50;;;1.00;;
14001;SDS011;7076;51.280;12.584;2023-12-20T08:20:48;0.70;;;0.70;;
14001;SDS011;7076;51.280;12.584;2023-12-20T08:25:52;0.97;;;0.63;;
14001;SDS011;7076;51.280;12.584;2023-12-20T08:30:54;0.90;;;0.80;;
14001;SDS011;7076;51.280;12.584;2023-12-20T08:35:57;2.80;;;0.93;;
14001;SDS011;7076;51.280;12.584;2023-12-20T08:41:01;1.47;;;1.10;;
14001;SDS011;7076;51.280;12.584;2023-12-20T08:46:06;4.30;;;1.03;;
14001;SDS011;7076;51.280;12.584;2023-12-20T08:51:11;3.03;;;1.00;;
14001;SDS011;7076;51.280;12.584;2023-12-20T08:56:15;1.73;;;0.80;;
14001;SDS011;7076;51.280;12.584;2023-12-20T09:01:19;1.27;;;0.83;;
14001;SDS011;7076;51.280;12.584;2023-12-20T09:06:22;2.07;;;1.10;;
14001;SDS011;7076;51.280;12.584;2023-12-20T09:11:27;2.50;;;1.23;;
14001;SDS011;7076;51.280;12.584;2023-12-20T09:16:30;1.07;;;0.97;;
14001;SDS011;7076;51.280;12.584;2023-12-20T09:21:33;1.37;;;1.00;;
14001;SDS011;7076;51.280;12.584;2023-12-20T09:26:37;1.87;;;1.13;;
14001;SDS011;7076;51.280;12.584;2023-12-20T09:31:41;2.73;;;1.30;;
14001;SDS011;7076;51.280;12.584;2023-12-20T09:36:45;2.17;;;0.90;;
14001;SDS011;7076;51.280;12.584;2023-12-20T09:41:51;2.00;;;1.20;;
14001;SDS011;7076;51.280;12.584;2023-12-20T09:47:01;2.13;;;1.03;;
14001;SDS011;7076;51.280;12.584;2023-12-20T09:52:04;3.67;;;1.17;;
14001;SDS011;7076;51.280;12.584;2023-12-20T09:57:10;2.77;;;1.20;;
14001;SDS011;7076;51.280;12.584;2023-12-20T10:02:13;3.00;;;1.10;;
14001;SDS011;7076;51.280;12.584;2023-12-20T10:07:17;3.13;;;1.40;;
14001;SDS011;7076;51.280;12.584;2023-12-20T10:12:21;4.13;;;1.30;;
14001;SDS011;7076;51.280;12.584;2023-12-20T10:17:24;4.73;;;1.23;;
14001;SDS011;7076;51.280;12.584;2023-12-20T10:22:30;1.33;;;1.23;;
14001;SDS011;7076;51.280;12.584;2023-12-20T10:27:35;3.95;;;1.40;;
14001;SDS011;7076;51.280;12.584;2023-12-20T10:32:38;3.47;;;1.50;;
14001;SDS011;7076;51.280;12.584;2023-12-20T10:37:42;4.43;;;1.60;;
14001;SDS011;7076;51.280;12.584;2023-12-20T10:42:46;3.70;;;1.30;;
14001;SDS011;7076;51.280;12.584;2023-12-20T10:47:49;5.07;;;1.38;;
14001;SDS011;7076;51.280;12.584;2023-12-20T10:52:52;2.78;;;1.30;;
14001;SDS011;7076;51.280;12.584;2023-12-20T10:58:00;1.48;;;1.20;;
14001;SDS011;7076;51.280;12.584;2023-12-20T11:03:03;1.30;;;1.20;;
14001;SDS011;7076;51.280;12.584;2023-12-20T11:08:07;3.28;;;1.20;;
14001;SDS011;7076;51.280;12.584;2023-12-20T11:13:15;2.50;;;1.10;;
14001;SDS011;7076;51.280;12.584;2023-12-20T11:18:19;4.03;;;1.25;;
14001;SDS011;7076;51.280;12.584;2023-12-20T11:23:22;2.80;;;1.23;;
14001;SDS011;7076;51.280;12.584;2023-12-20T11:28:27;4.63;;;0.95;;
14001;SDS011;7076;51.280;12.584;2023-12-20T11:33:35;5.75;;;1.33;;
14001;SDS011;7076;51.280;12.584;2023-12-20T11:38:38;2.00;;;0.77;;
14001;SDS011;7076;51.280;12.584;2023-12-20T11:43:42;0.85;;;0.80;;
14001;SDS011;7076;51.280;12.584;2023-12-20T11:48:45;1.23;;;1.00;;
14001;SDS011;7076;51.280;12.584;2023-12-20T11:53:51;4.43;;;1.33;;
14001;SDS011;7076;51.280;12.584;2023-12-20T11:58:55;1.40;;;1.05;;
14001;SDS011;7076;51.280;12.584;2023-12-20T12:04:13;5.57;;;1.33;;
14001;SDS011;7076;51.280;12.584;2023-12-20T12:09:17;3.88;;;1.20;;
14001;SDS011;7076;51.280;12.584;2023-12-20T12:14:21;3.17;;;1.05;;
14001;SDS011;7076;51.280;12.584;2023-12-20T12:19:24;1.67;;;0.90;;
14001;SDS011;7076;51.280;12.584;2023-12-20T12:24:26;3.50;;;1.10;;
14001;SDS011;7076;51.280;12.584;2023-12-20T12:29:31;1.10;;;0.83;;
14001;SDS011;7076;51.280;12.584;2023-12-20T12:34:33;3.45;;;1.00;;
14001;SDS011;7076;51.280;12.584;2023-12-20T12:39:36;2.35;;;0.77;;
14001;SDS011;7076;51.280;12.584;2023-12-20T12:44:40;1.80;;;1.00;;
14001;SDS011;7076;51.280;12.584;2023-12-20T12:49:43;2.67;;;1.25;;
14001;SDS011;7076;51.280;12.584;2023-12-20T12:54:46;4.22;;;1.10;;
14001;SDS011;7076;51.280;12.584;2023-12-20T12:59:50;1.13;;;0.80;;
14001;SDS011;7076;51.280;12.584;2023-12-20T13:04:52;3.50;;;1.13;;
14001;SDS011;7076;51.280;12.584;2023-12-20T13:09:55;3.67;;;0.93;;
14001;SDS011;7076;51.280;12.584;2023-12-20T13:14:59;2.55;;;1.00;;
14001;SDS011;7076;51.280;12.584;2023-12-20T13:20:03;2.17;;;1.00;;
14001;SDS011;7076;51.280;12.584;2023-12-20T13:25:06;3.55;;;0.80;;
14001;SDS011;7076;51.280;12.584;2023-12-20T13:30:11;2.17;;;1.00;;
14001;SDS011;7076;51.280;12.584;2023-12-20T13:35:13;3.63;;;0.88;;
14001;SDS011;7076;51.280;12.584;2023-12-20T13:40:16;1.23;;;0.90;;
14001;SDS011;7076;51.280;12.584;2023-12-20T13:45:20;1.70;;;1.10;;
14001;SDS011;7076;51.280;12.584;2023-12-20T13:50:23;2.25;;;0.90;;
14001;SDS011;7076;51.280;12.584;2023-12-20T13:55:27;1.67;;;0.80;;
14001;SDS011;7076;51.280;12.584;2023-12-20T14:00:33;1.73;;;0.83;;
14001;SDS011;7076;51.280;12.584;2023-12-20T14:05:36;1.10;;;0.70;;
14001;SDS011;7076;51.280;12.584;2023-12-20T14:10:38;2.55;;;0.90;;
14001;SDS011;7076;51.280;12.584;2023-12-20T14:15:42;1.23;;;1.02;;
14001;SDS011;7076;51.280;12.584;2023-12-20T14:20:45;0.80;;;0.80;;
14001;SDS011;7076;51.280;12.584;2023-12-20T14:25:48;2.20;;;1.00;;
14001;SDS011;7076;51.280;12.584;2023-12-20T14:30:54;1.07;;;0.80;;
14001;SDS011;7076;51.280;12.584;2023-12-20T14:35:57;0.80;;;0.80;;
14001;SDS011;7076;51.280;12.584;2023-12-20T14:41:00;1.00;;;0.83;;
14001;SDS011;7076;51.280;12.584;2023-12-20T14:46:06;2.07;;;0.73;;
14001;SDS011;7076;51.280;12.584;2023-12-20T14:51:08;0.83;;;0.60;;
14001;SDS011;7076;51.280;12.584;2023-12-20T14:56:11;2.60;;;0.80;;
14001;SDS011;7076;51.280;12.584;2023-12-20T15:01:15;1.10;;;0.80;;
14001;SDS011;7076;51.280;12.584;2023-12-20T15:06:22;3.50;;;0.90;;
14001;SDS011;7076;51.280;12.584;2023-12-20T15:11:27;2.07;;;0.70;;
14001;SDS011;7076;51.280;12.584;2023-12-20T15:16:31;1.90;;;0.70;;
14001;SDS011;7076;51.280;12.584;2023-12-20T15:21:34;2.80;;;0.90;;
14001;SDS011;7076;51.280;12.584;2023-12-20T15:26:45;1.80;;;1.00;;
14001;SDS011;7076;51.280;12.584;2023-12-20T15:31:50;1.73;;;0.97;;
14001;SDS011;7076;51.280;12.584;2023-12-20T15:36:52;2.10;;;0.80;;
14001;SDS011;7076;51.280;12.584;2023-12-20T15:41:55;0.63;;;0.60;;
14001;SDS011;7076;51.280;12.584;2023-12-20T15:46:59;0.90;;;0.70;;
14001;SDS011;7076;51.280;12.584;2023-12-20T15:52:02;0.82;;;0.75;;
14001;SDS011;7076;51.280;12.584;2023-12-20T15:57:07;1.53;;;0.80;;
14001;SDS011;7076;51.280;12.584;2023-12-20T16:02:12;1.63;;;0.97;;
14001;SDS011;7076;51.280;12.584;2023-12-20T16:07:15;2.97;;;0.97;;
14001;SDS011;7076;51.280;12.584;2023-12-20T16:12:17;0.50;;;0.50;;
14001;SDS011;7076;51.280;12.584;2023-12-20T16:17:21;1.87;;;0.93;;
14001;SDS011;7076;51.280;12.584;2023-12-20T16:22:24;1.07;;;0.70;;
14001;SDS011;7076;51.280;12.584;2023-12-20T16:27:28;2.33;;;0.70;;
14001;SDS011;7076;51.280;12.584;2023-12-20T16:32:32;0.60;;;0.60;;
14001;SDS011;7076;51.280;12.584;2023-12-20T16:37:35;1.20;;;0.70;;
14001;SDS011;7076;51.280;12.584;2023-12-20T16:42:39;3.20;;;1.30;;
14001;SDS011;7076;51.280;12.584;2023-12-20T16:47:43;2.10;;;1.30;;
14001;SDS011;7076;51.280;12.584;2023-12-20T16:52:46;1.27;;;1.10;;
14001;SDS011;7076;51.280;12.584;2023-12-20T16:57:52;1.97;;;0.90;;
14001;SDS011;7076;51.280;12.584;2023-12-20T17:02:56;3.97;;;1.13;;
14001;SDS011;7076;51.280;12.584;2023-12-20T17:07:59;1.63;;;0.90;;
14001;SDS011;7076;51.280;12.584;2023-12-20T17:13:02;1.50;;;0.93;;
14001;SDS011;7076;51.280;12.584;2023-12-20T17:18:06;1.03;;;0.87;;
14001;SDS011;7076;51.280;12.584;2023-12-20T17:23:09;2.60;;;1.00;;
14001;SDS011;7076;51.280;12.584;2023-12-20T17:28:12;2.40;;;1.40;;
14001;SDS011;7076;51.280;12.584;2023-12-20T17:33:16;3.17;;;1.10;;
14001;SDS011;7076;51.280;12.584;2023-12-20T17:38:19;2.93;;;1.40;;
14001;SDS011;7076;51.280;12.584;2023-12-20T17:43:21;1.47;;;1.27;;
14001;SDS011;7076;51.280;12.584;2023-12-20T17:48:25;1.35;;;1.25;;
14001;SDS011;7076;51.280;12.584;2023-12-20T17:53:28;1.20;;;1.10;;
14001;SDS011;7076;51.280;12.584;2023-12-20T17:58:31;2.03;;;1.10;;
14001;SDS011;7076;51.280;12.584;2023-12-20T18:03:35;1.33;;;1.20;;
14001;SDS011;7076;51.280;12.584;2023-12-20T18:08:38;4.37;;;1.57;;
14001;SDS011;7076;51.280;12.584;2023-12-20T18:13:40;5.07;;;2.23;;
14001;SDS011;7076;51.280;12.584;2023-12-20T18:18:45;3.97;;;1.60;;
14001;SDS011;7076;51.280;12.584;2023-12-20T18:23:48;4.37;;;1.60;;
14001;SDS011;7076;51.280;12.584;2023-12-20T18:28:57;2.30;;;1.80;;
14001;SDS011;7076;51.280;12.584;2023-12-20T18:34:02;2.73;;;1.90;;
14001;SDS011;7076;51.280;12.584;2023-12-20T18:39:08;3.87;;;2.10;;
14001;SDS011;7076;51.280;12.584;2023-12-20T18:44:11;3.88;;;1.85;;
14001;SDS011;7076;51.280;12.584;2023-12-20T18:49:15;3.40;;;1.80;;
14001;SDS011;7076;51.280;12.584;2023-12-20T18:54:18;4.70;;;1.87;;
14001;SDS011;7076;51.280;12.584;2023-12-20T18:59:22;1.40;;;1.30;;
14001;SDS011;7076;51.280;12.584;2023-12-20T19:04:26;1.70;;;1.50;;
14001;SDS011;7076;51.280;12.584;2023-12-20T19:09:29;2.27;;;1.10;;
14001;SDS011;7076;51.280;12.584;2023-12-20T19:14:32;2.53;;;1.53;;
14001;SDS011;7076;51.280;12.584;2023-12-20T19:19:36;2.93;;;1.20;;
14001;SDS011;7076;51.280;12.584;2023-12-20T19:24:39;1.73;;;1.07;;
14001;SDS011;7076;51.280;12.584;2023-12-20T19:29:42;2.27;;;1.13;;
14001;SDS011;7076;51.280;12.584;2023-12-20T19:34:46;2.30;;;0.90;;
14001;SDS011;7076;51.280;12.584;2023-12-20T19:39:49;3.37;;;1.27;;
14001;SDS011;7076;51.280;12.584;2023-12-20T19:44:51;3.20;;;1.10;;
14001;SDS011;7076;51.280;12.584;2023-12-20T19:49:56;2.63;;;1.30;;
14001;SDS011;7076;51.280;12.584;2023-12-20T19:54:58;1.33;;;0.93;;
14001;SDS011;7076;51.280;12.584;2023-12-20T20:00:02;1.43;;;1.10;;
14001;SDS011;7076;51.280;12.584;2023-12-20T20:05:13;1.77;;;1.10;;
14001;SDS011;7076;51.280;12.584;2023-12-20T20:10:16;2.23;;;1.07;;
14001;SDS011;7076;51.280;12.584;2023-12-20T20:15:19;3.83;;;1.10;;
14001;SDS011;7076;51.280;12.584;2023-12-20T20:20:23;4.03;;;0.60;;
14001;SDS011;7076;51.280;12.584;2023-12-20T20:25:25;1.17;;;0.70;;
14001;SDS011;7076;51.280;12.584;2023-12-20T20:30:29;1.87;;;0.87;;
14001;SDS011;7076;51.280;12.584;2023-12-20T20:35:33;1.80;;;1.07;;
14001;SDS011;7076;51.280;12.584;2023-12-20T20:40:36;1.43;;;0.80;;
14001;SDS011;7076;51.280;12.584;2023-12-20T20:45:39;0.80;;;0.80;;
14001;SDS011;7076;51.280;12.584;2023-12-20T20:50:43;1.10;;;1.00;;
14001;SDS011;7076;51.280;12.584;2023-12-20T20:55:46;4.57;;;1.00;;
14001;SDS011;7076;51.280;12.584;2023-12-20T21:00:48;0.77;;;0.77;;
14001;SDS011;7076;51.280;12.584;2023-12-20T21:05:53;5.70;;;1.30;;
14001;SDS011;7076;51.280;12.584;2023-12-20T21:10:56;1.73;;;0.93;;
14001;SDS011;7076;51.280;12.584;2023-12-20T21:16:00;2.37;;;1.30;;
14001;SDS011;7076;51.280;12.584;2023-12-20T21:21:05;1.35;;;0.68;;
14001;SDS011;7076;51.280;12.584;2023-12-20T21:26:08;1.63;;;0.97;;
14001;SDS011;7076;51.280;12.584;2023-12-20T21:31:12;0.80;;;0.80;;
14001;SDS011;7076;51.280;12.584;2023-12-20T21:36:16;1.50;;;1.00;;
14001;SDS011;7076;51.280;12.584;2023-12-20T21:41:19;0.73;;;0.73;;
14001;SDS011;7076;51.280;12.584;2023-12-20T21:46:24;2.87;;;0.90;;
14001;SDS011;7076;51.280;12.584;2023-12-20T21:51:28;0.73;;;0.70;;
14001;SDS011;7076;51.280;12.584;2023-12-20T21:56:31;0.70;;;0.70;;
14001;SDS011;7076;51.280;12.584;2023-12-20T22:01:35;1.53;;;0.90;;
14001;SDS011;7076;51.280;12.584;2023-12-20T22:06:39;0.70;;;0.70;;
14001;SDS011;7076;51.280;12.584;2023-12-20T22:11:42;1.13;;;0.77;;
14001;SDS011;7076;51.280;12.584;2023-12-20T22:16:45;0.60;;;0.60;;
14001;SDS011;7076;51.280;12.584;2023-12-20T22:21:49;3.77;;;0.80;;
14001;SDS011;7076;51.280;12.584;2023-12-20T22:26:51;0.87;;;0.60;;
14001;SDS011;7076;51.280;12.584;2023-12-20T22:31:55;2.20;;;0.67;;
14001;SDS011;7076;51.280;12.584;2023-12-20T22:36:59;1.13;;;0.70;;
14001;SDS011;7076;51.280;12.584;2023-12-20T22:42:01;0.90;;;0.67;;
14001;SDS011;7076;51.280;12.584;2023-12-20T22:47:04;0.70;;;0.70;;
14001;SDS011;7076;51.280;12.584;2023-12-20T22:52:08;1.30;;;0.67;;
14001;SDS011;7076;51.280;12.584;2023-12-20T22:57:11;0.63;;;0.60;;
14001;SDS011;7076;51.280;12.584;2023-12-20T23:02:13;0.93;;;0.70;;
14001;SDS011;7076;51.280;12.584;2023-12-20T23:07:18;1.47;;;0.60;;
14001;SDS011;7076;51.280;12.584;2023-12-20T23:12:21;1.47;;;0.70;;
14001;SDS011;7076;51.280;12.584;2023-12-20T23:17:24;0.50;;;0.50;;
14001;SDS011;7076;51.280;12.584;2023-12-20T23:22:28;1.30;;;0.60;;
14001;SDS011;7076;51.280;12.584;2023-12-20T23:27:31;0.57;;;0.57;;
14001;SDS011;7076;51.280;12.584;2023-12-20T23:32:33;1.40;;;0.50;;
14001;SDS011;7076;51.280;12.584;2023-12-20T23:37:37;0.60;;;0.60;;
14001;SDS011;7076;51.280;12.584;2023-12-20T23:42:40;0.82;;;0.73;;
14001;SDS011;7076;51.280;12.584;2023-12-20T23:47:43;0.53;;;0.40;;
14001;SDS011;7076;51.280;12.584;2023-12-20T23:52:47;1.03;;;0.60;;
14001;SDS011;7076;51.280;12.584;2023-12-20T23:57:51;0.77;;;0.53;;
